This is the latest recevied weather packets stored in our database for station/object WH6VH. If no packets are shown the sender has not sent any weather packets the latest 10 day(s).
| Time | Temp. | Humidity | Pressure | Rain* | Wind** | Luminosity | Snow |
|---|---|---|---|---|---|---|---|
| 1778138404 | 1.11° C | 81% | 1023.8 hPa | 0 mm | - | - | - |
| 1778135704 | 1.11° C | 83% | 1024.1 hPa | 0 mm | - | - | - |
| 1778135104 | 1.11° C | 83% | 1024.1 hPa | 0 mm | - | - | - |
| 1778129104 | 1.67° C | 82% | 1024.3 hPa | 0.25 mm | - | - | - |
| 1778123404 | 2.22° C | 82% | 1024 hPa | 0 mm | - | - | - |
| 1778117404 | 3.33° C | 72% | 1024.1 hPa | 0.76 mm | - | - | - |
| 1778111104 | 5° C | 68% | 1024.5 hPa | 2.29 mm | - | - | - |
| 1778110804 | 5° C | 68% | 1024.6 hPa | 2.29 mm | - | - | - |
| 1778109905 | 5° C | 69% | 1024.8 hPa | 2.29 mm | - | - | - |
| 1778109304 | 5.56° C | 66% | 1024.8 hPa | 2.29 mm | - | - | - |
| 1778108104 | 5° C | 67% | 1025 hPa | 2.29 mm | - | - | - |
| 1778107805 | 5° C | 69% | 1025.1 hPa | 2.03 mm | - | - | - |
| 1778106305 | 3.33° C | 79% | 1025.6 hPa | 1.27 mm | - | - | - |
| 1778105405 | 3.33° C | 77% | 1025.7 hPa | 1.02 mm | - | - | - |
| 1778104204 | 3.33° C | 77% | 1025.8 hPa | 0.51 mm | - | - | - |
| 1778103305 | 3.33° C | 79% | 1025.9 hPa | 0.51 mm | - | - | - |
| 1778102404 | 2.78° C | 80% | 1025.9 hPa | 0.51 mm | - | - | - |
| 1778101505 | 2.78° C | 80% | 1026 hPa | 0.25 mm | - | - | - |
| 1778100904 | 2.78° C | 79% | 1026 hPa | 0.25 mm | - | - | - |
| 1778099405 | 3.33° C | 81% | 1026 hPa | 0.25 mm | - | - | - |
| 1778098804 | 3.33° C | 82% | 1026.2 hPa | 0.25 mm | - | - | - |
| 1778098504 | 2.78° C | 83% | 1026.2 hPa | 0.25 mm | - | - | - |
| 1778097905 | 2.22° C | 84% | 1026.3 hPa | 0.25 mm | - | - | - |
| 1778097604 | 2.22° C | 85% | 1026.4 hPa | 0.51 mm | - | - | - |
| 1778089204 | 0° C | 93% | 1026.6 hPa | 0 mm | - | - | - |
* Rain latest hour (hover to see other rain measurements)
** Current wind speed in m/s (hover to see current wind gust speed)